Time;durP1;ratioP1;P1;durP2;ratioP2;P2;SDS_P1;SDS_P2;PMS_P1;PMS_P2;Temp;Humidity;BMP_temperature;BMP_pressure;BME280_temperature;BME280_humidity;BME280_pressure;Samples;Min_cycle;Max_cycle;Signal;HPM_P1;HPM_P2
2021/11/11 00:01:26;;;;;;;28.83;6.82;;;;;;;12.28;74.62;100843.03;5005797;28;20092;-49
2021/11/11 00:03:53;;;;;;;32.53;7.63;;;;;;;12.28;74.17;100843.03;5007255;28;20077;-49
2021/11/11 00:06:20;;;;;;;25.98;6.88;;;;;;;12.27;74.73;100836.09;5004563;28;20115;-47
2021/11/11 00:08:46;;;;;;;36.10;7.25;;;;;;;12.26;74.36;100834.34;5006577;28;20069;-47
2021/11/11 00:11:13;;;;;;;33.15;7.60;;;;;;;12.27;73.63;100833.50;5005844;28;20045;-58
2021/11/11 00:13:40;;;;;;;34.22;7.60;;;;;;;12.25;74.77;100827.41;5007388;28;20050;-56
2021/11/11 00:16:07;;;;;;;30.58;7.28;;;;;;;12.23;75.10;100823.97;5005808;28;20047;-53
2021/11/11 00:18:33;;;;;;;25.33;7.03;;;;;;;12.21;74.95;100817.88;5006282;28;20498;-53
2021/11/11 00:21:00;;;;;;;27.85;6.22;;;;;;;12.24;73.98;100824.81;5002205;28;20108;-57
2021/11/11 00:23:27;;;;;;;28.38;6.68;;;;;;;12.24;74.42;100825.69;5007384;28;20375;-54
2021/11/11 00:25:53;;;;;;;31.27;6.50;;;;;;;12.25;74.63;100831.72;5002715;28;20050;-49
2021/11/11 00:28:20;;;;;;;27.25;6.30;;;;;;;12.26;75.22;100823.94;5006422;28;20054;-47
2021/11/11 00:30:47;;;;;;;33.75;6.65;;;;;;;12.26;75.09;100818.75;5003202;28;20058;-51
2021/11/11 00:33:13;;;;;;;26.80;6.57;;;;;;;12.28;75.11;100817.03;5003816;28;20046;-53
2021/11/11 00:35:40;;;;;;;24.15;6.65;;;;;;;12.27;74.99;100817.91;5005845;28;20100;-53
2021/11/11 00:38:07;;;;;;;28.20;6.40;;;;;;;12.30;74.22;100819.66;4999984;28;20065;-51
2021/11/11 00:40:35;;;;;;;23.70;5.68;;;;;;;12.30;74.44;100815.31;5001882;28;20490;-52
2021/11/11 00:43:02;;;;;;;27.48;6.60;;;;;;;12.29;75.48;100823.97;5004288;28;20052;-49
2021/11/11 00:45:29;;;;;;;26.73;6.35;;;;;;;12.29;74.31;100818.78;5006558;28;20104;-53
2021/11/11 00:47:56;;;;;;;25.05;6.13;;;;;;;12.31;75.44;100822.25;5002034;28;20092;-53
2021/11/11 00:50:27;;;;;;;26.10;7.00;;;;;;;12.31;74.58;100822.25;5004509;28;20069;-53
2021/11/11 00:52:54;;;;;;;26.83;7.00;;;;;;;12.32;75.35;100823.97;4999504;28;20056;-47
2021/11/11 00:55:21;;;;;;;27.65;7.20;;;;;;;12.32;75.59;100818.78;5003307;28;20120;-52
2021/11/11 00:57:50;;;;;;;31.58;7.43;;;;;;;12.33;75.92;100817.06;4999239;28;20092;-56
2021/11/11 01:00:18;;;;;;;30.00;7.35;;;;;;;12.33;74.97;100820.50;5001232;28;20057;-48
2021/11/11 01:02:46;;;;;;;28.17;7.75;;;;;;;12.36;75.37;100816.19;5002652;28;20049;-50
2021/11/11 01:05:14;;;;;;;29.73;7.53;;;;;;;12.37;75.77;100820.53;5003227;28;20302;-55
2021/11/11 01:07:42;;;;;;;33.47;8.43;;;;;;;12.38;75.70;100812.75;5001713;28;20068;-51
2021/11/11 01:10:11;;;;;;;31.55;7.70;;;;;;;12.37;75.73;100804.94;5000457;28;20049;-49
2021/11/11 01:12:39;;;;;;;30.92;7.65;;;;;;;12.37;75.04;100804.94;4999114;28;20489;-53
2021/11/11 01:15:10;;;;;;;32.05;7.75;;;;;;;12.41;74.85;100806.69;5002644;28;20054;-50
2021/11/11 01:17:38;;;;;;;31.55;7.95;;;;;;;12.42;74.74;100803.19;5001754;28;20100;-50
2021/11/11 01:20:08;;;;;;;28.35;7.60;;;;;;;12.41;75.50;100802.34;5003582;28;20050;-54
2021/11/11 01:22:38;;;;;;;29.02;7.25;;;;;;;12.44;75.69;100801.50;5001668;28;20050;-53
2021/11/11 01:25:11;;;;;;;27.67;7.25;;;;;;;12.44;75.10;100806.69;5004485;28;20383;-52
2021/11/11 01:27:38;;;;;;;26.30;7.50;;;;;;;12.44;74.81;100801.50;5001828;28;20050;-50
2021/11/11 01:30:05;;;;;;;29.92;6.75;;;;;;;12.46;75.87;100799.75;5003236;28;20049;-52
2021/11/11 01:32:32;;;;;;;30.20;7.22;;;;;;;12.48;74.97;100803.22;5000325;28;20084;-51
2021/11/11 01:34:59;;;;;;;32.13;7.45;;;;;;;12.49;74.77;100799.75;5002368;28;20053;-47
2021/11/11 01:37:25;;;;;;;30.52;8.18;;;;;;;12.52;76.01;100815.34;5003691;28;20504;-56
2021/11/11 01:39:52;;;;;;;38.15;7.75;;;;;;;12.53;75.44;100811.03;5001428;28;20074;-51
2021/11/11 01:42:19;;;;;;;29.92;7.55;;;;;;;12.53;75.32;100813.63;5004553;28;20100;-56
2021/11/11 01:44:51;;;;;;;31.17;7.50;;;;;;;12.54;74.73;100808.44;5002064;28;20046;-52
2021/11/11 01:47:20;;;;;;;25.80;7.40;;;;;;;12.54;75.53;100808.44;5002988;28;20543;-55
2021/11/11 01:49:47;;;;;;;29.10;7.57;;;;;;;12.57;75.63;100807.56;5002470;28;20692;-46
2021/11/11 01:52:17;;;;;;;24.73;6.78;;;;;;;12.58;74.86;100804.09;5000923;28;20139;-50
2021/11/11 01:54:44;;;;;;;27.67;7.75;;;;;;;12.59;75.77;100796.31;5005472;28;20448;-50
2021/11/11 01:57:14;;;;;;;21.58;6.57;;;;;;;12.60;75.43;100803.22;4999801;28;20105;-50
2021/11/11 01:59:41;;;;;;;26.10;8.63;;;;;;;12.60;75.09;100798.03;5003378;28;21086;-57
2021/11/11 02:02:29;;;;;;;25.90;7.68;;;;;;;12.63;75.95;100796.31;4999684;28;20085;-52
2021/11/11 02:04:56;;;;;;;26.13;7.35;;;;;;;12.64;75.23;100798.03;5003739;28;20103;-51
2021/11/11 02:07:23;;;;;;;24.20;7.72;;;;;;;12.64;74.78;100792.84;5003501;28;20050;-52
2021/11/11 02:09:50;;;;;;;24.30;7.07;;;;;;;12.66;75.89;100793.72;5003723;28;20050;-53
2021/11/11 02:12:17;;;;;;;24.10;7.25;;;;;;;12.68;74.72;100794.59;5005553;28;20096;-53
2021/11/11 02:14:44;;;;;;;22.85;6.70;;;;;;;12.68;75.24;100792.88;5003809;28;20057;-55
2021/11/11 02:17:10;;;;;;;17.23;4.63;;;;;;;12.69;75.71;100801.50;5002373;28;20046;-49
2021/11/11 02:19:44;;;;;;;11.02;3.95;;;;;;;12.63;75.31;100798.91;5003508;28;20050;-56
2021/11/11 02:22:11;;;;;;;11.73;3.55;;;;;;;12.62;75.66;100799.75;5005182;28;20049;-52
2021/11/11 02:24:37;;;;;;;8.75;3.53;;;;;;;12.59;75.01;100793.72;5004666;28;20054;-56
2021/11/11 02:27:04;;;;;;;10.13;3.03;;;;;;;12.60;75.10;100797.19;5000776;28;20050;-54
2021/11/11 02:29:31;;;;;;;9.73;3.25;;;;;;;12.59;74.88;100796.31;5001853;28;20053;-57
2021/11/11 02:31:58;;;;;;;8.85;3.03;;;;;;;12.59;74.90;100806.72;5000843;28;20100;-50
2021/11/11 02:34:24;;;;;;;10.23;4.25;;;;;;;12.57;74.97;100791.97;5003674;28;20046;-55
2021/11/11 02:36:58;;;;;;;10.13;3.45;;;;;;;12.56;74.62;100791.09;5001778;28;20053;-52
2021/11/11 02:39:31;;;;;;;9.68;3.30;;;;;;;12.54;75.62;100792.84;5001976;28;20058;-49
2021/11/11 02:41:59;;;;;;;9.38;3.05;;;;;;;12.55;75.26;100798.91;4997812;28;20108;-49
2021/11/11 02:44:27;;;;;;;7.50;2.80;;;;;;;12.52;76.04;100791.97;5000753;28;20090;-57
2021/11/11 02:46:56;;;;;;;11.70;3.92;;;;;;;12.51;74.46;100798.03;4999091;28;20097;-58
2021/11/11 02:49:23;;;;;;;8.48;3.10;;;;;;;12.51;75.77;100795.44;5004528;28;20476;-48
2021/11/11 02:51:51;;;;;;;9.43;2.90;;;;;;;12.49;75.77;100797.16;5005732;28;20054;-53
2021/11/11 02:54:18;;;;;;;6.57;2.38;;;;;;;12.49;74.81;100789.38;5002110;28;20606;-52
2021/11/11 02:56:44;;;;;;;7.55;2.75;;;;;;;12.49;75.79;100794.56;5002785;28;20046;-51
2021/11/11 02:59:11;;;;;;;6.68;3.00;;;;;;;12.51;74.69;100792.84;5004458;28;20112;-51
2021/11/11 03:01:37;;;;;;;5.82;2.20;;;;;;;12.49;75.38;100794.56;5006075;28;20046;-49
2021/11/11 03:04:04;;;;;;;5.78;2.15;;;;;;;12.49;74.50;100789.38;5002825;28;20530;-51
2021/11/11 03:06:31;;;;;;;6.18;2.53;;;;;;;12.47;75.47;100780.72;5006241;28;20054;-56
2021/11/11 03:08:57;;;;;;;5.75;2.22;;;;;;;12.47;74.44;100788.50;5005354;28;20530;-48
2021/11/11 03:11:27;;;;;;;6.72;2.53;;;;;;;12.47;75.60;100785.91;5007109;28;20046;-53
2021/11/11 03:13:54;;;;;;;6.90;2.30;;;;;;;12.47;74.85;100791.09;4999335;28;20564;-56
2021/11/11 03:16:21;;;;;;;5.53;2.15;;;;;;;12.46;74.88;100789.34;5001627;28;20057;-49
2021/11/11 03:18:49;;;;;;;6.10;2.17;;;;;;;12.44;74.96;100796.28;5002940;28;20690;-48
2021/11/11 03:21:15;;;;;;;6.22;2.15;;;;;;;12.42;74.37;100803.19;5004308;28;20054;-53
2021/11/11 03:23:42;;;;;;;6.32;1.98;;;;;;;12.42;74.64;100793.69;5003104;28;20046;-51
2021/11/11 03:26:08;;;;;;;5.55;2.25;;;;;;;12.43;75.62;100799.75;4999104;28;20572;-53
2021/11/11 03:28:35;;;;;;;7.85;2.85;;;;;;;12.43;74.57;100800.59;5000209;28;20108;-45
2021/11/11 03:31:02;;;;;;;6.78;2.75;;;;;;;12.43;74.45;100795.41;5002917;28;20038;-52
2021/11/11 03:33:28;;;;;;;5.70;2.10;;;;;;;12.44;75.07;100793.69;5003852;28;20058;-53
2021/11/11 03:35:55;;;;;;;7.60;2.58;;;;;;;12.42;74.45;100798.00;5007781;28;20053;-53
2021/11/11 03:38:22;;;;;;;5.40;2.35;;;;;;;12.40;75.52;100795.41;5006400;28;20379;-58
2021/11/11 03:40:48;;;;;;;5.57;1.95;;;;;;;12.38;74.38;100802.34;5004659;28;20648;-53
2021/11/11 03:43:15;;;;;;;5.13;2.13;;;;;;;12.39;74.53;100798.03;5004304;28;20049;-50
2021/11/11 03:45:42;;;;;;;5.03;1.67;;;;;;;12.40;75.41;100804.94;5006027;28;20548;-51
2021/11/11 03:48:08;;;;;;;3.63;1.27;;;;;;;12.39;75.17;100804.06;5004007;28;20097;-52
2021/11/11 03:50:35;;;;;;;2.60;1.10;;;;;;;12.39;75.35;100792.84;5003227;28;20046;-50
2021/11/11 03:53:03;;;;;;;2.78;1.38;;;;;;;12.38;74.47;100801.47;5004825;28;20061;-54
2021/11/11 03:55:31;;;;;;;3.33;1.40;;;;;;;12.40;75.08;100802.34;5000560;28;20057;-50
2021/11/11 03:57:57;;;;;;;3.92;1.35;;;;;;;12.40;74.68;100794.56;4999769;28;20104;-50
2021/11/11 04:00:24;;;;;;;2.80;1.30;;;;;;;12.41;74.80;100797.16;5005192;28;20096;-50
2021/11/11 04:02:51;;;;;;;2.50;1.23;;;;;;;12.41;75.27;100797.16;5003464;28;20070;-51
2021/11/11 04:05:19;;;;;;;4.00;1.27;;;;;;;12.44;74.90;100796.28;5001523;28;20053;-48
2021/11/11 04:07:45;;;;;;;3.22;1.30;;;;;;;12.44;74.15;100798.91;4995652;28;20109;-54
2021/11/11 04:10:12;;;;;;;2.72;1.55;;;;;;;12.45;75.04;100792.81;5007255;28;20488;-50
2021/11/11 04:12:57;;;;;;;3.25;1.30;;;;;;;12.44;74.52;100794.56;5004392;28;20054;-51
2021/11/11 04:15:23;;;;;;;2.22;1.10;;;;;;;12.43;75.15;100789.38;5002733;28;20398;-50
2021/11/11 04:17:50;;;;;;;2.50;1.17;;;;;;;12.45;74.69;100787.63;5003451;28;20459;-51
2021/11/11 04:20:17;;;;;;;4.88;2.75;;;;;;;12.46;74.76;100791.94;5000992;28;20657;-51
2021/11/11 04:22:43;;;;;;;3.63;1.27;;;;;;;12.44;75.17;100781.59;5005653;28;20150;-52
2021/11/11 04:25:16;;;;;;;3.42;1.20;;;;;;;12.46;74.50;100789.34;5001357;28;20111;-51
2021/11/11 04:27:53;;;;;;;2.70;1.17;;;;;;;12.46;75.03;100789.34;5002492;28;20045;-52
2021/11/11 04:30:28;;;;;;;4.03;1.63;;;;;;;12.45;75.12;100791.09;4999719;28;20116;-46
2021/11/11 04:32:55;;;;;;;4.53;1.60;;;;;;;12.44;74.75;100791.97;5000475;28;20064;-51
2021/11/11 04:35:22;;;;;;;3.35;1.55;;;;;;;12.45;73.85;100792.81;4999184;28;20536;-47
2021/11/11 04:40:56;;;;;;;3.53;1.63;;;;;;;12.44;74.90;100796.28;4998350;28;20068;-54
2021/11/11 04:46:33;;;;;;;4.88;2.38;;;;;;;12.43;74.44;100804.97;5001186;28;20054;-53
2021/11/11 04:51:52;;;;;;;5.45;2.05;;;;;;;12.42;75.15;100809.28;5002235;28;20054;-50
2021/11/11 05:05:30;;;;;;;3.97;3.10;;;;;;;12.39;73.91;100798.03;5002959;28;20586;-55
2021/11/11 05:07:58;;;;;;;4.32;2.40;;;;;;;12.39;73.62;100804.06;4996622;28;20076;-49
2021/11/11 05:10:25;;;;;;;4.10;1.60;;;;;;;12.38;73.96;100807.53;5002550;28;20430;-51
2021/11/11 05:12:54;;;;;;;4.78;2.00;;;;;;;12.36;74.32;100816.19;5004241;28;20053;-51
2021/11/11 05:15:22;;;;;;;5.75;2.55;;;;;;;12.36;74.14;100808.41;5000761;28;20057;-49
2021/11/11 05:17:49;;;;;;;5.32;2.33;;;;;;;12.36;74.97;100808.41;5003388;28;20046;-53
2021/11/11 05:20:19;;;;;;;5.05;2.05;;;;;;;12.35;74.23;100807.53;5000889;28;20120;-48
2021/11/11 05:22:47;;;;;;;7.03;2.97;;;;;;;12.34;74.59;100811.84;5004846;28;20068;-53
2021/11/11 05:25:15;;;;;;;5.07;1.92;;;;;;;12.36;74.16;100811.00;4999816;28;20050;-52
2021/11/11 05:27:44;;;;;;;5.20;2.25;;;;;;;12.37;74.86;100816.22;5003874;28;20049;-49
2021/11/11 05:30:13;;;;;;;5.68;2.35;;;;;;;12.37;74.05;100817.94;4998030;28;20112;-50
2021/11/11 05:32:39;;;;;;;6.05;2.35;;;;;;;12.38;73.63;100817.06;5000843;28;20054;-58
2021/11/11 05:35:09;;;;;;;6.68;2.78;;;;;;;12.37;73.66;100817.94;5004835;28;20049;-57
2021/11/11 05:37:36;;;;;;;6.97;2.40;;;;;;;12.38;74.22;100817.06;4999347;28;20057;-53
2021/11/11 05:40:05;;;;;;;6.47;2.33;;;;;;;12.38;74.23;100811.84;5005080;28;20042;-46
2021/11/11 05:42:31;;;;;;;6.60;2.88;;;;;;;12.37;74.56;100815.31;5001213;28;20057;-50
2021/11/11 05:44:58;;;;;;;7.55;2.75;;;;;;;12.37;73.77;100805.81;5000702;28;20050;-52
2021/11/11 05:47:25;;;;;;;6.45;2.80;;;;;;;12.37;73.30;100810.13;5001823;28;20042;-52
2021/11/11 05:49:51;;;;;;;7.22;2.70;;;;;;;12.38;73.89;100814.47;5002566;28;20629;-52
2021/11/11 05:52:18;;;;;;;7.10;2.92;;;;;;;12.37;73.88;100812.72;5004286;28;20041;-52
2021/11/11 05:54:45;;;;;;;5.90;2.55;;;;;;;12.37;73.52;100810.13;5005704;28;20069;-48
2021/11/11 05:57:11;;;;;;;7.28;4.93;;;;;;;12.38;73.59;100814.47;5003784;28;20621;-49
2021/11/11 05:59:39;;;;;;;8.32;2.78;;;;;;;12.36;73.92;100818.78;4997665;28;20493;-53
2021/11/11 06:02:07;;;;;;;6.78;3.10;;;;;;;12.34;74.55;100811.84;5001997;28;20048;-50
2021/11/11 06:04:34;;;;;;;7.05;2.80;;;;;;;12.33;73.58;100815.31;4999891;28;20107;-53
2021/11/11 06:07:01;;;;;;;7.53;2.65;;;;;;;12.33;73.52;100810.13;5001072;28;20128;-54
2021/11/11 06:09:27;;;;;;;8.13;2.90;;;;;;;12.34;73.54;100811.84;5003339;28;20494;-49
2021/11/11 06:11:54;;;;;;;6.90;2.47;;;;;;;12.34;74.15;100811.00;4999442;28;20099;-53
2021/11/11 06:14:21;;;;;;;8.15;2.38;;;;;;;12.33;74.59;100810.13;5002240;28;20310;-48
2021/11/11 06:16:47;;;;;;;6.07;2.75;;;;;;;12.32;73.32;100808.41;5002350;28;20050;-53
2021/11/11 06:19:16;;;;;;;8.57;2.55;;;;;;;12.31;74.33;100809.25;5000220;28;20462;-54
2021/11/11 06:21:44;;;;;;;7.15;2.63;;;;;;;12.30;74.29;100814.47;5000760;28;20126;-51
2021/11/11 06:24:11;;;;;;;6.63;2.42;;;;;;;12.29;74.31;100813.56;5000082;28;20053;-55
2021/11/11 06:26:38;;;;;;;26.95;2.70;;;;;;;12.29;73.52;100820.53;5004065;28;20437;-57
2021/11/11 06:29:05;;;;;;;37.47;3.88;;;;;;;12.28;73.63;100814.44;5004337;28;20084;-53
2021/11/11 06:31:31;;;;;;;18.17;2.35;;;;;;;12.29;74.85;100821.38;5003850;28;20076;-55
2021/11/11 06:33:59;;;;;;;8.60;2.90;;;;;;;12.29;74.45;100823.97;5005813;28;20070;-44
2021/11/11 06:36:26;;;;;;;11.38;2.53;;;;;;;12.28;73.73;100823.97;5001817;28;20046;-47
2021/11/11 06:38:57;;;;;;;11.15;2.58;;;;;;;12.28;74.59;100830.03;5000975;28;20046;-54
2021/11/11 06:41:24;;;;;;;8.95;2.70;;;;;;;12.29;73.40;100823.97;5004296;28;20073;-50
2021/11/11 06:43:51;;;;;;;8.00;2.63;;;;;;;12.31;73.96;100826.56;5002979;28;20104;-46
2021/11/11 06:46:18;;;;;;;11.30;4.25;;;;;;;12.32;74.13;100829.19;5007861;28;20602;-51
2021/11/11 06:48:44;;;;;;;13.50;3.22;;;;;;;12.33;73.66;100830.91;5007256;28;20054;-58
2021/11/11 06:51:11;;;;;;;12.10;2.80;;;;;;;12.32;74.30;100834.38;5004458;28;20058;-47
2021/11/11 06:53:38;;;;;;;10.65;3.35;;;;;;;12.32;74.48;100831.78;5005878;28;20065;-50
2021/11/11 06:56:04;;;;;;;7.30;2.60;;;;;;;12.31;74.07;100840.44;5006701;28;20054;-48
2021/11/11 06:58:31;;;;;;;8.80;2.95;;;;;;;12.31;74.19;100843.03;5004752;28;20054;-53
2021/11/11 07:01:01;;;;;;;8.38;2.42;;;;;;;12.31;73.55;100844.75;4996184;28;20050;-53
2021/11/11 07:03:29;;;;;;;8.48;2.58;;;;;;;12.30;73.77;100846.47;5000186;28;20050;-47
2021/11/11 07:05:56;;;;;;;8.52;2.97;;;;;;;12.31;74.34;100848.22;5001542;28;20046;-55
2021/11/11 07:08:23;;;;;;;8.68;2.80;;;;;;;12.31;74.73;100850.81;4999649;28;20049;-53
2021/11/11 07:10:52;;;;;;;7.68;2.33;;;;;;;12.29;74.61;100849.94;4998022;28;20061;-52
2021/11/11 07:13:19;;;;;;;8.00;2.95;;;;;;;12.31;74.60;100848.22;5001813;28;20108;-49
2021/11/11 07:15:47;;;;;;;7.43;2.58;;;;;;;12.31;74.40;100853.44;4998926;28;20057;-54
2021/11/11 07:18:14;;;;;;;8.50;2.30;;;;;;;12.32;74.41;100859.47;4996355;28;20046;-52
2021/11/11 07:20:44;;;;;;;7.15;2.38;;;;;;;12.33;74.34;100850.84;5000351;28;20506;-50
2021/11/11 07:23:14;;;;;;;6.68;2.45;;;;;;;12.33;73.68;100851.69;5000635;28;20053;-52
2021/11/11 07:25:41;;;;;;;7.13;2.22;;;;;;;12.32;73.10;100849.97;5004197;28;20050;-53
2021/11/11 07:28:07;;;;;;;6.57;2.33;;;;;;;12.33;74.47;100846.47;5003591;28;20077;-48
2021/11/11 07:30:34;;;;;;;8.45;2.75;;;;;;;12.33;74.15;100845.63;5001329;28;20054;-49
2021/11/11 07:33:01;;;;;;;7.00;2.20;;;;;;;12.32;74.27;100846.47;4996382;28;20111;-50
2021/11/11 07:35:28;;;;;;;7.55;2.33;;;;;;;12.30;73.52;100846.47;5003713;28;20061;-48
2021/11/11 07:37:55;;;;;;;7.05;2.42;;;;;;;12.28;73.50;100848.22;4999543;28;20099;-47
2021/11/11 07:40:25;;;;;;;6.90;2.53;;;;;;;12.25;74.01;100848.19;5006047;28;20054;-47
2021/11/11 07:42:53;;;;;;;6.47;1.98;;;;;;;12.21;74.71;100846.47;4999071;28;20097;-54
2021/11/11 07:45:25;;;;;;;7.30;2.10;;;;;;;12.19;74.62;100850.75;4998598;28;20064;-46
2021/11/11 07:47:54;;;;;;;8.55;2.35;;;;;;;12.20;73.66;100855.13;5001313;28;20089;-56
2021/11/11 07:50:21;;;;;;;6.85;1.95;;;;;;;12.21;73.85;100857.72;5004456;28;20080;-49
2021/11/11 07:52:48;;;;;;;5.20;1.90;;;;;;;12.23;74.18;100860.31;5004774;28;20104;-50
2021/11/11 07:55:15;;;;;;;7.25;2.05;;;;;;;12.23;75.12;100868.13;5001648;28;20489;-53
2021/11/11 07:57:42;;;;;;;8.48;1.80;;;;;;;12.27;74.01;100861.19;5001854;28;20108;-54
2021/11/11 08:00:11;;;;;;;5.40;1.85;;;;;;;12.28;75.25;100858.59;4999390;28;20053;-50
2021/11/11 08:02:40;;;;;;;5.18;2.05;;;;;;;12.32;73.91;100859.47;5000667;28;20104;-47
2021/11/11 08:05:08;;;;;;;5.97;1.92;;;;;;;12.36;74.99;100857.75;4999866;28;20049;-45
2021/11/11 08:07:35;;;;;;;5.90;1.63;;;;;;;12.46;74.53;100862.97;5003183;28;20658;-48
2021/11/11 08:10:02;;;;;;;6.13;2.25;;;;;;;12.57;74.68;100865.59;4999682;28;20054;-52
2021/11/11 08:12:29;;;;;;;6.70;3.97;;;;;;;12.63;75.03;100869.09;4994445;28;20107;-50
2021/11/11 08:14:57;;;;;;;5.05;1.75;;;;;;;12.68;74.32;100872.56;5000643;28;20116;-52
2021/11/11 08:17:25;;;;;;;6.93;2.45;;;;;;;12.70;73.94;100876.03;5000564;28;20061;-47
2021/11/11 08:19:55;;;;;;;6.50;2.00;;;;;;;12.76;74.30;100876.03;5000766;28;20093;-51
2021/11/11 08:22:23;;;;;;;;;;;;;;;12.64;75.23;100866.50;4998134;28;20049;-56
2021/11/11 08:24:50;;;;;;;5.22;2.03;;;;;;;12.82;74.41;100865.66;4999859;28;19949;-49
2021/11/11 08:27:18;;;;;;;5.30;1.83;;;;;;;12.92;73.71;100868.25;4999546;28;20058;-48
2021/11/11 08:29:45;;;;;;;5.15;1.60;;;;;;;12.96;74.14;100868.25;5003819;28;20061;-55
2021/11/11 08:32:13;;;;;;;7.65;1.92;;;;;;;13.01;73.57;100864.78;4995587;28;20050;-55
2021/11/11 08:34:42;;;;;;;5.20;1.25;;;;;;;13.03;74.42;100870.88;5000083;28;20053;-53
2021/11/11 08:37:09;;;;;;;4.22;1.67;;;;;;;13.08;74.29;100863.94;4998269;28;20045;-52
2021/11/11 08:39:47;;;;;;;6.03;2.63;;;;;;;13.27;74.12;100866.53;5001536;28;20100;-50
2021/11/11 08:42:15;;;;;;;6.65;1.48;;;;;;;13.61;73.62;100866.47;4998761;28;20121;-50
2021/11/11 08:44:56;;;;;;;4.13;1.40;;;;;;;13.91;73.65;100861.22;4996475;28;20074;-52
2021/11/11 08:47:23;;;;;;;4.32;1.33;;;;;;;14.03;72.41;100860.28;4995421;28;20107;-51
2021/11/11 08:49:52;;;;;;;4.00;1.17;;;;;;;13.98;72.51;100862.91;4995038;28;20057;-56
2021/11/11 08:52:20;;;;;;;2.88;1.00;;;;;;;13.96;71.75;100857.72;5003614;28;20046;-54
2021/11/11 08:54:48;;;;;;;4.82;1.42;;;;;;;13.92;71.89;100860.34;4996179;28;20100;-53
2021/11/11 08:57:15;;;;;;;3.42;1.52;;;;;;;13.87;72.78;100863.81;4996369;28;20054;-54
2021/11/11 09:00:04;;;;;;;3.75;1.40;;;;;;;13.79;72.22;100851.69;4997266;28;20197;-52
2021/11/11 09:02:31;;;;;;;4.55;1.50;;;;;;;13.74;72.14;100859.50;5000049;28;20049;-49
2021/11/11 09:04:57;;;;;;;4.90;2.20;;;;;;;13.75;72.57;100858.66;4996145;28;20108;-54
2021/11/11 09:07:24;;;;;;;5.07;1.83;;;;;;;13.74;72.70;100857.78;4996061;28;20112;-52
2021/11/11 09:09:51;;;;;;;4.85;1.75;;;;;;;13.77;72.68;100856.06;4996991;28;20109;-48
2021/11/11 09:12:17;;;;;;;4.93;1.75;;;;;;;13.81;72.91;100850.81;4992610;28;20057;-48
2021/11/11 09:14:44;;;;;;;4.43;1.67;;;;;;;13.91;72.13;100856.00;4996656;28;20096;-50
2021/11/11 09:17:10;;;;;;;4.10;1.30;;;;;;;13.99;72.50;100851.63;5000368;28;20054;-49
2021/11/11 09:19:37;;;;;;;4.80;1.60;;;;;;;14.11;71.92;100856.78;5003307;28;20579;-56
2021/11/11 09:22:04;;;;;;;2.75;1.15;;;;;;;14.45;72.53;100860.09;5002389;28;20042;-51
2021/11/11 09:24:31;;;;;;;4.63;1.60;;;;;;;14.76;72.77;100858.16;5001814;28;20050;-50
2021/11/11 09:26:58;;;;;;;4.95;2.20;;;;;;;15.15;72.00;100857.00;5000874;28;20050;-56
2021/11/11 09:29:25;;;;;;;10.93;4.07;;;;;;;15.51;71.26;100854.06;4995521;28;20058;-52
2021/11/11 09:31:52;;;;;;;17.80;10.02;;;;;;;15.71;70.78;100855.59;4994009;28;20057;-51
2021/11/11 09:34:18;;;;;;;13.88;8.13;;;;;;;15.76;70.21;100861.63;4999992;28;20057;-48
2021/11/11 09:36:45;;;;;;;9.75;5.18;;;;;;;15.73;69.68;100851.19;4997390;28;20763;-53
2021/11/11 09:39:11;;;;;;;5.68;3.10;;;;;;;15.66;69.45;100860.88;5002060;28;20050;-49
2021/11/11 09:41:39;;;;;;;5.63;2.72;;;;;;;15.55;69.46;100861.00;5000058;28;20073;-53
2021/11/11 09:44:07;;;;;;;4.97;2.90;;;;;;;15.42;69.27;100855.91;5001975;28;20119;-49
2021/11/11 09:46:34;;;;;;;4.63;1.90;;;;;;;15.41;69.98;100854.13;5003379;28;20553;-51
2021/11/11 09:49:01;;;;;;;4.57;2.00;;;;;;;15.55;69.65;100851.41;4998614;28;20124;-43
2021/11/11 09:51:28;;;;;;;5.25;1.52;;;;;;;16.01;70.00;100848.31;5002754;28;20486;-47
2021/11/11 09:54:02;;;;;;;3.65;1.85;;;;;;;16.53;68.77;100846.75;5004948;28;20477;-48
2021/11/11 09:59:23;;;;;;;2.85;0.80;;;;;;;17.49;67.61;100853.06;5001310;28;20061;-51
2021/11/11 10:01:50;;;;;;;2.28;0.90;;;;;;;17.76;66.49;100850.78;4998024;28;20775;-47
2021/11/11 10:04:19;;;;;;;1.98;1.23;;;;;;;18.12;66.71;100848.31;5002297;28;20048;-48
2021/11/11 10:06:46;;;;;;;1.80;0.98;;;;;;;18.43;65.48;100852.88;5001336;28;20053;-47
2021/11/11 10:09:16;;;;;;;1.63;1.00;;;;;;;18.50;64.60;100854.47;4997690;28;20409;-50
2021/11/11 10:11:50;;;;;;;4.38;1.00;;;;;;;18.54;64.16;100849.16;5002471;28;20045;-53
2021/11/11 10:14:27;;;;;;;5.20;1.95;;;;;;;18.47;64.11;100848.44;4998619;28;20493;-51
2021/11/11 10:16:58;;;;;;;3.40;1.70;;;;;;;18.41;63.70;100859.91;5004637;28;20050;-53
2021/11/11 10:19:26;;;;;;;3.05;1.15;;;;;;;18.28;64.22;100858.47;4998845;28;20494;-54
2021/11/11 10:21:59;;;;;;;3.42;1.35;;;;;;;18.22;64.20;100860.34;5000373;28;20068;-50
2021/11/11 10:24:31;;;;;;;3.25;1.60;;;;;;;18.11;63.60;100867.59;4999403;28;20060;-48
2021/11/11 10:27:19;;;;;;;3.53;1.60;;;;;;;18.02;64.15;100867.72;4996429;28;20057;-56
2021/11/11 10:29:52;;;;;;;4.15;2.00;;;;;;;17.83;64.02;100858.47;5012063;28;20062;-50
2021/11/11 10:32:26;;;;;;;4.65;1.90;;;;;;;17.60;63.51;100866.81;4998206;28;20076;-50
2021/11/11 10:35:02;;;;;;;6.72;2.63;;;;;;;17.42;64.18;100855.78;5001677;28;20049;-50
2021/11/11 10:37:32;;;;;;;4.70;2.20;;;;;;;17.40;64.47;100854.09;4998664;28;20041;-49
2021/11/11 10:40:15;;;;;;;4.85;2.25;;;;;;;17.23;65.04;100855.25;4999013;28;20054;-49
2021/11/11 10:42:44;;;;;;;3.72;2.00;;;;;;;17.14;65.13;100864.13;4998031;28;20054;-55
2021/11/11 10:45:15;;;;;;;3.78;2.10;;;;;;;17.15;64.95;100860.59;5002007;28;20053;-53
2021/11/11 10:47:47;;;;;;;2.72;1.63;;;;;;;17.07;65.17;100854.66;5006480;28;20061;-52
2021/11/11 10:50:19;;;;;;;2.97;1.70;;;;;;;16.94;64.61;100860.06;5002434;28;20057;-53
2021/11/11 10:52:50;;;;;;;2.70;1.58;;;;;;;16.76;65.23;100862.97;5000517;28;20104;-52
2021/11/11 10:55:24;;;;;;;2.25;1.10;;;;;;;16.57;65.31;100860.63;4999287;28;20046;-50
2021/11/11 10:58:02;;;;;;;3.28;1.55;;;;;;;16.46;65.61;100855.56;4983598;28;20189;-54
2021/11/11 11:00:44;;;;;;;3.00;1.95;;;;;;;16.39;66.46;100854.78;4999493;28;20045;-52
2021/11/11 11:03:15;;;;;;;3.75;1.73;;;;;;;16.38;65.65;100847.81;5004328;28;20054;-47
2021/11/11 11:05:48;;;;;;;5.25;2.15;;;;;;;16.33;66.29;100844.41;4999021;28;20052;-50
2021/11/11 11:08:20;;;;;;;3.45;1.85;;;;;;;16.24;66.04;100840.16;5001993;28;20545;-53
2021/11/11 11:10:53;;;;;;;4.10;1.35;;;;;;;16.25;66.77;100841.88;5001538;28;20050;-50
2021/11/11 11:13:25;;;;;;;3.03;1.80;;;;;;;16.34;67.27;100837.44;5005222;28;20042;-53
2021/11/11 11:15:55;;;;;;;4.40;1.92;;;;;;;16.41;66.33;100837.31;5011548;28;20054;-53
2021/11/11 11:18:26;;;;;;;3.10;1.60;;;;;;;16.47;66.03;100843.31;5002625;28;20498;-50
2021/11/11 11:20:56;;;;;;;3.70;1.90;;;;;;;16.46;66.45;100837.25;5005577;28;20461;-48
2021/11/11 11:23:29;;;;;;;2.83;1.52;;;;;;;16.45;67.05;100832.91;5004235;28;20053;-52
2021/11/11 11:26:05;;;;;;;3.28;1.25;;;;;;;16.49;66.82;100833.72;4996809;28;20540;-49
2021/11/11 11:28:36;;;;;;;3.13;1.83;;;;;;;16.49;66.57;100831.09;5003944;28;20050;-49
2021/11/11 11:31:06;;;;;;;2.17;1.02;;;;;;;16.44;66.72;100826.81;5003336;28;20058;-51
2021/11/11 11:33:41;;;;;;;2.60;1.83;;;;;;;16.35;66.51;100821.69;5004132;28;20078;-53
2021/11/11 11:36:12;;;;;;;2.38;1.08;;;;;;;16.20;66.03;100822.78;4996662;28;20050;-48
2021/11/11 11:38:50;;;;;;;3.03;1.67;;;;;;;16.06;66.28;100815.16;5005425;28;20046;-50
2021/11/11 11:41:36;;;;;;;3.88;1.30;;;;;;;15.90;66.48;100812.69;5001128;28;20054;-48
2021/11/11 11:44:25;;;;;;;2.10;1.27;;;;;;;15.81;67.06;100807.59;5000391;28;20054;-45
2021/11/11 11:47:18;;;;;;;2.70;1.30;;;;;;;15.75;67.28;100808.53;4998839;28;20462;-42
2021/11/11 11:49:53;;;;;;;2.10;1.30;;;;;;;15.76;67.41;100806.78;5002615;28;20046;-51
2021/11/11 11:52:21;;;;;;;2.28;0.93;;;;;;;15.67;67.15;100798.19;5000781;28;20108;-52
2021/11/11 11:54:55;;;;;;;2.28;1.08;;;;;;;15.67;67.98;100800.78;5002150;28;20509;-46